Pagrindinis puslapis
METAR-TAF:

METAR-TAF

Oro uostai :

Visbis, Gotlandas, Švedija

platuma: 57-40N, ilguma: 018-21E, Aukštis: 51 m

Dabartinis oras

Ataskaita buvo paskelbta 34 minutes, ne 04:20 UTC
Vėjas 6 kt iš Pietų/Pietvakarių
Temperatūra 14°C
Drėgmė 94%
Slėgis 1017 hPa
Matomumas 10 km arba daugiau
Mažai debesys ne aukštis 1200 ft

METAR: ESSV 200420Z 20006KT 9999 FEW012 14/13 Q1017

Laikas: 06:54 (04:54 UTC)

Prognozė

Ataskaita buvo paskelbta 2 valandos ir 24 minutes, ne 02:30 UTC
Prognozė galioja nuo 20 metu 03 UTC su 20 metu 12 UTC
Vėjas 12 kt iš Vakarų/Pietvakarių
Matomumas 10 km arba daugiau
nėra debesų žemiau 1500 m ir nėra kamuolinių lietaus debesų

TAF: ESSV 200230Z 2003/2012 24012KT CAVOK

Orai ataskaitas ir orų prognozės (METAR, TAF).

turimą stotys yra geltonos ir raudonos taškus žemėlapyje.

Perkelti pele per norėdami pamatyti stoties vardą.

Tada spustelėkite, norėdami matyti oro stebėjimo ir prognozės.

Norėdami pakeisti žemėlapį: spustelėkite ant žalios mygtukų su juodo kryžiaus žemyn,; žalią mygtuką su brūkšneliu, jei norite nutolinti; arba žalių rodyklių gretimoms žemėlapius.


METAR-TAF: